罗盘
风向 的 风向 的 风向 到 风向 270° Castres-Mazamet Airport 14/32
风: 5 kt, 2 beaufort

3 kt

4 kt
改变
0 2.000 4.000 6.000 8.000 10.000
FEW 4.200 ft
BKN 6.800 ft
METAR LFCR 171000Z AUTO 27005KT 230V330 9999 FEW042/// BKN068/// ///CB 21/16 Q1012 BECMG SCT015 BKN045

METAR Castres-Mazamet Airport - LFCK/DCM

Castres-Mazamet Airport是Castres/Mazamet,法国中的中型机场。 该机场有一条跑道: 14/32. 该领域的国际民航组织标志是LFCK 它的国际航空运输协会代码是DCM.

这份报告是针对2022年8月17日 12:00, 当地时间在Rodez-Marcillac Airport进行的。

机场观察

风向为270°,速度为5 kt。 风向在230°和330°之间变化。

可见度为10 km 或者更多。

有几云在4.200 ft的高度 和 碎云在6.800 ft的高度。 破损或更高的上限为6.800 ft。

温度和风寒是21 °C。 露点为16 °C,相对湿度为73%。 海平面上的气压为1012 hPa (QNH)。

发展趋势

  • 变得

    可变方向的风很小或没有。 疏云,零星散落的云朵在1.500 ft的高度 和 碎云在4.500 ft的高度.

白天

今天,太阳从06:57升起,在20:51降落。 这适用于Castres-Mazamet Airport,世界夏令时可能有所不同。 当地时间与世界标准时间之间的时差为+2 小时。 夏令时目前正在进行中。

公司介绍

在这个机场,你可以找到飞行俱乐部。 本场上唯一已知的公司是Aéroclub de Castres Mazamet。

体会

到Vliegles.nl去找飞行课程,跳伞和其他飞行体验。 浏览页面,了解Castres-Mazamet Airport附近所有可用的活动。 你也可以使用搜索功能来寻找你所在地附近的特定飞行课程、跳伞或其他飞行体验。

跑道

Id 标题 侧风 逆风 侧风 %
14/32 141°-321° 4 kt 3 kt 78 %

逆风成分最大的方向会被突出显示,并用于横风计算。 这并不一定意味着这个方向在使用。

乌云

4.200 ft FEW 几云
6.800 ft BKN 碎云
1.500 ft SCT 变得 疏云,零星散落的云朵
4.500 ft BKN 变得 碎云

温度 & 天气

温度 21 °C
露点 16 °C
相对湿度 73%
Kp-index 2  

白天

日出
06:55
中午
13:54
日落
20:52 (8h 23m)

小工具

你想在你的网站上有一个关于Castres-Mazamet Airport的当前航空天气(METAR)的小部件吗?

</> 显示HTML代码

我们和第三方通过cookies跟踪您在我们网站上的上网行为。如果您继续,我们认为您同意我们的cookie政策。 了解更多